sensor_id;sensor_type;location;lat;lon;timestamp;temperature;humidity
25949;DHT22;13961;51.178;4.448;2023-05-07T00:00:00;17.20;99.90
25949;DHT22;13961;51.178;4.448;2023-05-07T00:02:26;17.20;99.90
25949;DHT22;13961;51.178;4.448;2023-05-07T00:04:52;17.20;99.90
25949;DHT22;13961;51.178;4.448;2023-05-07T00:07:18;17.30;99.90
25949;DHT22;13961;51.178;4.448;2023-05-07T00:09:44;17.30;99.90
25949;DHT22;13961;51.178;4.448;2023-05-07T00:12:10;17.40;99.90
25949;DHT22;13961;51.178;4.448;2023-05-07T00:14:36;17.30;99.90
25949;DHT22;13961;51.178;4.448;2023-05-07T00:17:02;17.30;99.90
25949;DHT22;13961;51.178;4.448;2023-05-07T00:19:28;17.20;99.90
25949;DHT22;13961;51.178;4.448;2023-05-07T00:21:54;17.20;99.90
25949;DHT22;13961;51.178;4.448;2023-05-07T00:24:21;17.20;99.90
25949;DHT22;13961;51.178;4.448;2023-05-07T00:26:48;17.10;99.90
25949;DHT22;13961;51.178;4.448;2023-05-07T00:29:13;17.10;99.90
25949;DHT22;13961;51.178;4.448;2023-05-07T00:31:39;17.10;99.90
25949;DHT22;13961;51.178;4.448;2023-05-07T00:34:05;17.10;99.90
25949;DHT22;13961;51.178;4.448;2023-05-07T00:36:31;17.10;99.90
25949;DHT22;13961;51.178;4.448;2023-05-07T00:38:59;17.10;99.90
25949;DHT22;13961;51.178;4.448;2023-05-07T00:41:27;17.20;99.90
25949;DHT22;13961;51.178;4.448;2023-05-07T00:43:52;17.10;99.90
25949;DHT22;13961;51.178;4.448;2023-05-07T00:46:20;17.10;99.90
25949;DHT22;13961;51.178;4.448;2023-05-07T00:48:47;17.10;99.90
25949;DHT22;13961;51.178;4.448;2023-05-07T00:51:14;17.10;99.90
25949;DHT22;13961;51.178;4.448;2023-05-07T00:53:40;17.10;99.90
25949;DHT22;13961;51.178;4.448;2023-05-07T00:56:06;17.20;99.90
25949;DHT22;13961;51.178;4.448;2023-05-07T00:58:33;17.20;99.90
25949;DHT22;13961;51.178;4.448;2023-05-07T01:00:59;17.20;99.90
25949;DHT22;13961;51.178;4.448;2023-05-07T01:03:25;17.10;99.90
25949;DHT22;13961;51.178;4.448;2023-05-07T01:05:52;17.00;99.90
25949;DHT22;13961;51.178;4.448;2023-05-07T01:08:19;17.00;99.90
25949;DHT22;13961;51.178;4.448;2023-05-07T01:10:46;17.10;99.90
25949;DHT22;13961;51.178;4.448;2023-05-07T01:13:12;17.10;99.90
25949;DHT22;13961;51.178;4.448;2023-05-07T01:15:39;17.10;99.90
25949;DHT22;13961;51.178;4.448;2023-05-07T01:18:07;17.00;99.90
25949;DHT22;13961;51.178;4.448;2023-05-07T01:20:33;17.00;99.90
25949;DHT22;13961;51.178;4.448;2023-05-07T01:23:00;17.00;99.90
25949;DHT22;13961;51.178;4.448;2023-05-07T01:25:27;17.00;99.90
25949;DHT22;13961;51.178;4.448;2023-05-07T01:27:54;17.00;99.90
25949;DHT22;13961;51.178;4.448;2023-05-07T01:30:20;16.90;99.90
25949;DHT22;13961;51.178;4.448;2023-05-07T01:35:34;16.80;99.90
25949;DHT22;13961;51.178;4.448;2023-05-07T01:38:02;16.80;99.90
25949;DHT22;13961;51.178;4.448;2023-05-07T01:40:30;16.80;99.90
25949;DHT22;13961;51.178;4.448;2023-05-07T01:42:56;16.80;99.90
25949;DHT22;13961;51.178;4.448;2023-05-07T01:45:23;16.70;99.90
25949;DHT22;13961;51.178;4.448;2023-05-07T01:47:50;16.70;99.90
25949;DHT22;13961;51.178;4.448;2023-05-07T01:50:18;16.60;99.90
25949;DHT22;13961;51.178;4.448;2023-05-07T01:52:44;16.60;99.90
25949;DHT22;13961;51.178;4.448;2023-05-07T01:55:10;16.50;99.90
25949;DHT22;13961;51.178;4.448;2023-05-07T01:57:36;16.50;99.90
25949;DHT22;13961;51.178;4.448;2023-05-07T02:00:02;16.40;99.90
25949;DHT22;13961;51.178;4.448;2023-05-07T02:02:31;16.30;99.90
25949;DHT22;13961;51.178;4.448;2023-05-07T02:04:57;16.30;99.90
25949;DHT22;13961;51.178;4.448;2023-05-07T02:07:23;16.20;99.90
25949;DHT22;13961;51.178;4.448;2023-05-07T02:09:48;16.20;99.90
25949;DHT22;13961;51.178;4.448;2023-05-07T02:12:14;16.10;99.90
25949;DHT22;13961;51.178;4.448;2023-05-07T02:14:40;16.00;99.90
25949;DHT22;13961;51.178;4.448;2023-05-07T02:17:07;16.00;99.90
25949;DHT22;13961;51.178;4.448;2023-05-07T02:19:37;16.00;99.90
25949;DHT22;13961;51.178;4.448;2023-05-07T02:22:02;16.00;99.90
25949;DHT22;13961;51.178;4.448;2023-05-07T02:24:28;16.00;99.90
25949;DHT22;13961;51.178;4.448;2023-05-07T02:26:53;16.10;99.90
25949;DHT22;13961;51.178;4.448;2023-05-07T02:29:19;16.10;99.90
25949;DHT22;13961;51.178;4.448;2023-05-07T02:31:45;16.20;99.90
25949;DHT22;13961;51.178;4.448;2023-05-07T02:34:11;16.20;99.90
25949;DHT22;13961;51.178;4.448;2023-05-07T02:36:36;16.30;99.90
25949;DHT22;13961;51.178;4.448;2023-05-07T02:39:02;16.40;99.90
25949;DHT22;13961;51.178;4.448;2023-05-07T02:41:28;16.40;99.90
25949;DHT22;13961;51.178;4.448;2023-05-07T02:43:55;16.40;99.90
25949;DHT22;13961;51.178;4.448;2023-05-07T02:46:20;16.40;99.90
25949;DHT22;13961;51.178;4.448;2023-05-07T02:48:46;16.50;99.90
25949;DHT22;13961;51.178;4.448;2023-05-07T02:51:12;16.50;99.90
25949;DHT22;13961;51.178;4.448;2023-05-07T02:53:38;16.60;99.90
25949;DHT22;13961;51.178;4.448;2023-05-07T02:56:04;16.60;99.90
25949;DHT22;13961;51.178;4.448;2023-05-07T02:58:32;16.60;99.90
25949;DHT22;13961;51.178;4.448;2023-05-07T03:00:59;16.70;99.90
25949;DHT22;13961;51.178;4.448;2023-05-07T03:03:25;16.70;99.90
25949;DHT22;13961;51.178;4.448;2023-05-07T03:05:51;16.70;99.90
25949;DHT22;13961;51.178;4.448;2023-05-07T03:08:17;16.70;99.90
25949;DHT22;13961;51.178;4.448;2023-05-07T03:10:45;16.50;99.90
25949;DHT22;13961;51.178;4.448;2023-05-07T03:13:11;16.60;99.90
25949;DHT22;13961;51.178;4.448;2023-05-07T03:15:36;16.60;99.90
25949;DHT22;13961;51.178;4.448;2023-05-07T03:18:02;16.60;99.90
25949;DHT22;13961;51.178;4.448;2023-05-07T03:20:29;16.60;99.90
25949;DHT22;13961;51.178;4.448;2023-05-07T03:22:55;16.60;99.90
25949;DHT22;13961;51.178;4.448;2023-05-07T03:25:21;16.50;99.90
25949;DHT22;13961;51.178;4.448;2023-05-07T03:27:47;16.40;99.90
25949;DHT22;13961;51.178;4.448;2023-05-07T03:30:12;16.60;99.90
25949;DHT22;13961;51.178;4.448;2023-05-07T03:32:38;16.60;99.90
25949;DHT22;13961;51.178;4.448;2023-05-07T03:35:04;16.60;99.90
25949;DHT22;13961;51.178;4.448;2023-05-07T03:37:30;16.70;99.90
25949;DHT22;13961;51.178;4.448;2023-05-07T03:39:57;16.60;99.90
25949;DHT22;13961;51.178;4.448;2023-05-07T03:42:23;16.60;99.90
25949;DHT22;13961;51.178;4.448;2023-05-07T03:44:49;16.60;99.90
25949;DHT22;13961;51.178;4.448;2023-05-07T03:47:15;16.60;99.90
25949;DHT22;13961;51.178;4.448;2023-05-07T03:49:41;16.70;99.90
25949;DHT22;13961;51.178;4.448;2023-05-07T03:52:07;16.70;99.90
25949;DHT22;13961;51.178;4.448;2023-05-07T03:54:33;16.60;99.90
25949;DHT22;13961;51.178;4.448;2023-05-07T03:56:58;16.60;99.90
25949;DHT22;13961;51.178;4.448;2023-05-07T03:59:24;16.50;99.90
25949;DHT22;13961;51.178;4.448;2023-05-07T04:01:50;16.50;99.90
25949;DHT22;13961;51.178;4.448;2023-05-07T04:04:15;16.50;99.90
25949;DHT22;13961;51.178;4.448;2023-05-07T04:06:41;16.50;99.90
25949;DHT22;13961;51.178;4.448;2023-05-07T04:09:09;16.50;99.90
25949;DHT22;13961;51.178;4.448;2023-05-07T04:11:35;16.50;99.90
25949;DHT22;13961;51.178;4.448;2023-05-07T04:14:01;16.50;99.90
25949;DHT22;13961;51.178;4.448;2023-05-07T04:16:27;16.50;99.90
25949;DHT22;13961;51.178;4.448;2023-05-07T04:18:53;16.30;99.90
25949;DHT22;13961;51.178;4.448;2023-05-07T04:21:19;16.50;99.90
25949;DHT22;13961;51.178;4.448;2023-05-07T04:23:49;16.50;99.90
25949;DHT22;13961;51.178;4.448;2023-05-07T04:26:15;16.50;99.90
25949;DHT22;13961;51.178;4.448;2023-05-07T04:28:41;16.40;99.90
25949;DHT22;13961;51.178;4.448;2023-05-07T04:31:08;16.40;99.90
25949;DHT22;13961;51.178;4.448;2023-05-07T04:33:34;16.50;99.90
25949;DHT22;13961;51.178;4.448;2023-05-07T04:36:03;16.50;99.90
25949;DHT22;13961;51.178;4.448;2023-05-07T04:38:32;16.60;99.90
25949;DHT22;13961;51.178;4.448;2023-05-07T04:41:05;16.60;99.90
25949;DHT22;13961;51.178;4.448;2023-05-07T04:43:31;16.40;99.90
25949;DHT22;13961;51.178;4.448;2023-05-07T04:45:57;16.30;99.90
25949;DHT22;13961;51.178;4.448;2023-05-07T04:48:22;16.50;99.90
25949;DHT22;13961;51.178;4.448;2023-05-07T04:50:49;16.50;99.90
25949;DHT22;13961;51.178;4.448;2023-05-07T04:53:17;16.60;99.90
25949;DHT22;13961;51.178;4.448;2023-05-07T04:55:43;16.70;99.90
25949;DHT22;13961;51.178;4.448;2023-05-07T04:58:09;16.60;99.90
25949;DHT22;13961;51.178;4.448;2023-05-07T05:00:35;16.80;99.90
25949;DHT22;13961;51.178;4.448;2023-05-07T05:03:01;16.90;99.90
25949;DHT22;13961;51.178;4.448;2023-05-07T05:05:27;17.00;99.90
25949;DHT22;13961;51.178;4.448;2023-05-07T05:07:52;17.00;99.90
25949;DHT22;13961;51.178;4.448;2023-05-07T05:10:19;17.00;99.90
25949;DHT22;13961;51.178;4.448;2023-05-07T05:12:45;17.10;99.90
25949;DHT22;13961;51.178;4.448;2023-05-07T05:15:13;17.00;99.90
25949;DHT22;13961;51.178;4.448;2023-05-07T05:17:39;17.10;99.90
25949;DHT22;13961;51.178;4.448;2023-05-07T05:20:06;17.20;99.90
25949;DHT22;13961;51.178;4.448;2023-05-07T05:22:33;17.30;99.90
25949;DHT22;13961;51.178;4.448;2023-05-07T05:24:58;17.30;99.90
25949;DHT22;13961;51.178;4.448;2023-05-07T05:27:24;17.40;99.90
25949;DHT22;13961;51.178;4.448;2023-05-07T05:29:50;17.50;99.90
25949;DHT22;13961;51.178;4.448;2023-05-07T05:32:15;17.40;99.90
25949;DHT22;13961;51.178;4.448;2023-05-07T05:34:41;17.40;99.90
25949;DHT22;13961;51.178;4.448;2023-05-07T05:37:07;17.50;99.90
25949;DHT22;13961;51.178;4.448;2023-05-07T05:39:32;17.60;99.90
25949;DHT22;13961;51.178;4.448;2023-05-07T05:41:58;17.60;99.90
25949;DHT22;13961;51.178;4.448;2023-05-07T05:44:24;17.60;99.90
25949;DHT22;13961;51.178;4.448;2023-05-07T05:46:50;17.60;99.90
25949;DHT22;13961;51.178;4.448;2023-05-07T05:49:16;17.60;99.90
25949;DHT22;13961;51.178;4.448;2023-05-07T05:51:43;17.80;99.90
25949;DHT22;13961;51.178;4.448;2023-05-07T05:54:09;17.80;99.90
25949;DHT22;13961;51.178;4.448;2023-05-07T05:56:34;17.70;99.90
25949;DHT22;13961;51.178;4.448;2023-05-07T05:59:01;17.10;99.90
25949;DHT22;13961;51.178;4.448;2023-05-07T06:01:27;16.80;99.90
25949;DHT22;13961;51.178;4.448;2023-05-07T06:03:52;16.80;99.90
25949;DHT22;13961;51.178;4.448;2023-05-07T06:06:19;16.80;99.90
25949;DHT22;13961;51.178;4.448;2023-05-07T06:08:45;17.00;99.90
25949;DHT22;13961;51.178;4.448;2023-05-07T06:11:12;17.30;99.90
25949;DHT22;13961;51.178;4.448;2023-05-07T06:13:41;17.60;99.90
25949;DHT22;13961;51.178;4.448;2023-05-07T06:16:06;17.70;99.90
25949;DHT22;13961;51.178;4.448;2023-05-07T06:18:32;18.00;99.90
25949;DHT22;13961;51.178;4.448;2023-05-07T06:20:58;18.00;99.90
25949;DHT22;13961;51.178;4.448;2023-05-07T06:23:23;18.30;99.90
25949;DHT22;13961;51.178;4.448;2023-05-07T06:25:50;18.40;99.90
25949;DHT22;13961;51.178;4.448;2023-05-07T06:28:17;18.50;99.90
25949;DHT22;13961;51.178;4.448;2023-05-07T06:30:43;18.60;99.90
25949;DHT22;13961;51.178;4.448;2023-05-07T06:33:08;18.70;99.90
25949;DHT22;13961;51.178;4.448;2023-05-07T06:35:34;18.90;99.90
25949;DHT22;13961;51.178;4.448;2023-05-07T06:38:00;18.90;99.90
25949;DHT22;13961;51.178;4.448;2023-05-07T06:40:27;19.10;99.90
25949;DHT22;13961;51.178;4.448;2023-05-07T06:42:53;19.40;99.90
25949;DHT22;13961;51.178;4.448;2023-05-07T06:45:19;19.30;99.90
25949;DHT22;13961;51.178;4.448;2023-05-07T06:47:45;19.30;99.90
25949;DHT22;13961;51.178;4.448;2023-05-07T06:50:11;19.50;99.90
25949;DHT22;13961;51.178;4.448;2023-05-07T06:52:37;19.50;99.90
25949;DHT22;13961;51.178;4.448;2023-05-07T06:55:03;19.70;99.90
25949;DHT22;13961;51.178;4.448;2023-05-07T06:57:29;19.90;99.90
25949;DHT22;13961;51.178;4.448;2023-05-07T06:59:55;20.00;99.90
25949;DHT22;13961;51.178;4.448;2023-05-07T07:02:21;19.40;99.90
25949;DHT22;13961;51.178;4.448;2023-05-07T07:04:47;19.50;99.90
25949;DHT22;13961;51.178;4.448;2023-05-07T07:07:13;19.60;99.90
25949;DHT22;13961;51.178;4.448;2023-05-07T07:09:38;19.50;99.90
25949;DHT22;13961;51.178;4.448;2023-05-07T07:12:07;19.40;99.90
25949;DHT22;13961;51.178;4.448;2023-05-07T07:14:36;19.40;99.90
25949;DHT22;13961;51.178;4.448;2023-05-07T07:17:01;19.60;99.90
25949;DHT22;13961;51.178;4.448;2023-05-07T07:19:27;19.80;99.90
25949;DHT22;13961;51.178;4.448;2023-05-07T07:21:53;20.00;99.90
25949;DHT22;13961;51.178;4.448;2023-05-07T07:24:18;20.10;99.90
25949;DHT22;13961;51.178;4.448;2023-05-07T07:26:46;19.80;99.90
25949;DHT22;13961;51.178;4.448;2023-05-07T07:29:13;19.80;99.90
25949;DHT22;13961;51.178;4.448;2023-05-07T07:31:38;19.80;99.90
25949;DHT22;13961;51.178;4.448;2023-05-07T07:34:04;20.00;99.90
25949;DHT22;13961;51.178;4.448;2023-05-07T07:36:30;20.10;99.90
25949;DHT22;13961;51.178;4.448;2023-05-07T07:38:55;20.30;99.90
25949;DHT22;13961;51.178;4.448;2023-05-07T07:41:22;20.70;99.90
25949;DHT22;13961;51.178;4.448;2023-05-07T07:43:48;20.90;99.90
25949;DHT22;13961;51.178;4.448;2023-05-07T07:46:13;20.40;99.90
25949;DHT22;13961;51.178;4.448;2023-05-07T07:48:39;20.30;99.90
25949;DHT22;13961;51.178;4.448;2023-05-07T07:51:05;20.40;99.90
25949;DHT22;13961;51.178;4.448;2023-05-07T07:53:31;20.40;99.90
25949;DHT22;13961;51.178;4.448;2023-05-07T07:55:56;20.70;99.90
25949;DHT22;13961;51.178;4.448;2023-05-07T07:58:22;21.00;99.90
25949;DHT22;13961;51.178;4.448;2023-05-07T08:00:50;20.70;99.90
25949;DHT22;13961;51.178;4.448;2023-05-07T08:03:16;20.80;99.90
25949;DHT22;13961;51.178;4.448;2023-05-07T08:05:42;20.90;99.90
25949;DHT22;13961;51.178;4.448;2023-05-07T08:08:08;21.20;99.90
25949;DHT22;13961;51.178;4.448;2023-05-07T08:10:34;21.00;99.90
25949;DHT22;13961;51.178;4.448;2023-05-07T08:13:03;20.70;99.90
25949;DHT22;13961;51.178;4.448;2023-05-07T08:15:30;20.80;99.90
25949;DHT22;13961;51.178;4.448;2023-05-07T08:17:55;21.10;99.90
25949;DHT22;13961;51.178;4.448;2023-05-07T08:20:23;21.10;99.90
25949;DHT22;13961;51.178;4.448;2023-05-07T08:22:49;21.00;99.90
25949;DHT22;13961;51.178;4.448;2023-05-07T08:25:14;21.30;99.90
25949;DHT22;13961;51.178;4.448;2023-05-07T08:27:40;21.40;99.90
25949;DHT22;13961;51.178;4.448;2023-05-07T08:30:06;21.40;99.90
25949;DHT22;13961;51.178;4.448;2023-05-07T08:32:32;21.30;99.90
25949;DHT22;13961;51.178;4.448;2023-05-07T08:34:58;21.00;99.90
25949;DHT22;13961;51.178;4.448;2023-05-07T08:37:24;20.90;99.90
25949;DHT22;13961;51.178;4.448;2023-05-07T08:39:49;21.00;99.90
25949;DHT22;13961;51.178;4.448;2023-05-07T08:42:16;21.30;99.90
25949;DHT22;13961;51.178;4.448;2023-05-07T08:44:45;21.30;99.90
25949;DHT22;13961;51.178;4.448;2023-05-07T08:47:12;21.40;99.90
25949;DHT22;13961;51.178;4.448;2023-05-07T08:49:38;21.00;99.90
25949;DHT22;13961;51.178;4.448;2023-05-07T08:52:04;20.60;99.90
25949;DHT22;13961;51.178;4.448;2023-05-07T08:54:31;20.80;99.90
25949;DHT22;13961;51.178;4.448;2023-05-07T08:56:57;20.60;99.90
25949;DHT22;13961;51.178;4.448;2023-05-07T08:59:23;20.70;99.90
25949;DHT22;13961;51.178;4.448;2023-05-07T09:01:49;20.70;99.90
25949;DHT22;13961;51.178;4.448;2023-05-07T09:04:14;21.00;99.90
25949;DHT22;13961;51.178;4.448;2023-05-07T09:06:40;21.00;99.90
25949;DHT22;13961;51.178;4.448;2023-05-07T09:09:08;20.70;99.90
25949;DHT22;13961;51.178;4.448;2023-05-07T09:11:34;20.60;99.90
25949;DHT22;13961;51.178;4.448;2023-05-07T09:14:00;20.80;99.90
25949;DHT22;13961;51.178;4.448;2023-05-07T09:16:28;20.70;99.90
25949;DHT22;13961;51.178;4.448;2023-05-07T09:18:58;20.70;99.90
25949;DHT22;13961;51.178;4.448;2023-05-07T09:21:23;21.00;99.90
25949;DHT22;13961;51.178;4.448;2023-05-07T09:23:54;21.10;99.90
25949;DHT22;13961;51.178;4.448;2023-05-07T09:26:24;21.30;99.90
25949;DHT22;13961;51.178;4.448;2023-05-07T09:28:50;21.30;99.90
25949;DHT22;13961;51.178;4.448;2023-05-07T09:31:16;21.40;99.90
25949;DHT22;13961;51.178;4.448;2023-05-07T09:33:42;21.30;99.90
25949;DHT22;13961;51.178;4.448;2023-05-07T09:36:09;21.60;99.90
25949;DHT22;13961;51.178;4.448;2023-05-07T09:38:37;21.50;99.90
25949;DHT22;13961;51.178;4.448;2023-05-07T09:41:08;21.40;99.90
25949;DHT22;13961;51.178;4.448;2023-05-07T09:43:35;21.50;99.90
25949;DHT22;13961;51.178;4.448;2023-05-07T09:46:08;21.50;99.90
25949;DHT22;13961;51.178;4.448;2023-05-07T09:48:37;21.10;99.90
25949;DHT22;13961;51.178;4.448;2023-05-07T09:52:07;21.00;99.90
25949;DHT22;13961;51.178;4.448;2023-05-07T09:54:02;21.10;99.90
25949;DHT22;13961;51.178;4.448;2023-05-07T09:56:29;21.30;99.90
25949;DHT22;13961;51.178;4.448;2023-05-07T09:58:59;21.20;99.90
25949;DHT22;13961;51.178;4.448;2023-05-07T10:01:26;21.20;99.90
25949;DHT22;13961;51.178;4.448;2023-05-07T10:03:52;20.70;99.90
25949;DHT22;13961;51.178;4.448;2023-05-07T10:06:20;20.50;99.90
25949;DHT22;13961;51.178;4.448;2023-05-07T10:08:49;20.50;99.90
25949;DHT22;13961;51.178;4.448;2023-05-07T10:11:16;20.40;99.90
25949;DHT22;13961;51.178;4.448;2023-05-07T10:13:43;20.40;99.90
25949;DHT22;13961;51.178;4.448;2023-05-07T10:16:09;20.50;99.90
25949;DHT22;13961;51.178;4.448;2023-05-07T10:18:35;20.50;99.90
25949;DHT22;13961;51.178;4.448;2023-05-07T10:21:08;20.60;99.90
25949;DHT22;13961;51.178;4.448;2023-05-07T10:23:35;20.60;99.90
25949;DHT22;13961;51.178;4.448;2023-05-07T10:26:04;20.40;99.90
25949;DHT22;13961;51.178;4.448;2023-05-07T10:28:34;20.20;99.90
25949;DHT22;13961;51.178;4.448;2023-05-07T10:34:00;20.40;99.90
25949;DHT22;13961;51.178;4.448;2023-05-07T10:36:27;20.40;99.90
25949;DHT22;13961;51.178;4.448;2023-05-07T10:38:53;20.50;99.90
25949;DHT22;13961;51.178;4.448;2023-05-07T10:41:20;20.50;99.90
25949;DHT22;13961;51.178;4.448;2023-05-07T10:43:46;20.60;99.90
25949;DHT22;13961;51.178;4.448;2023-05-07T10:46:16;20.40;99.90
25949;DHT22;13961;51.178;4.448;2023-05-07T10:51:28;20.50;99.90
25949;DHT22;13961;51.178;4.448;2023-05-07T10:56:42;20.10;99.90
25949;DHT22;13961;51.178;4.448;2023-05-07T11:02:00;20.30;99.90
25949;DHT22;13961;51.178;4.448;2023-05-07T11:04:28;20.20;99.90
25949;DHT22;13961;51.178;4.448;2023-05-07T11:09:54;20.60;99.90
25949;DHT22;13961;51.178;4.448;2023-05-07T11:15:09;20.90;99.90
25949;DHT22;13961;51.178;4.448;2023-05-07T11:17:55;20.80;99.90
25949;DHT22;13961;51.178;4.448;2023-05-07T11:26:06;20.70;99.90
25949;DHT22;13961;51.178;4.448;2023-05-07T11:28:41;20.80;99.90
25949;DHT22;13961;51.178;4.448;2023-05-07T11:31:07;20.90;99.90
25949;DHT22;13961;51.178;4.448;2023-05-07T11:33:33;20.80;99.90
25949;DHT22;13961;51.178;4.448;2023-05-07T11:36:00;20.60;99.90
25949;DHT22;13961;51.178;4.448;2023-05-07T11:38:28;20.80;99.90
25949;DHT22;13961;51.178;4.448;2023-05-07T11:40:56;20.90;99.90
25949;DHT22;13961;51.178;4.448;2023-05-07T11:43:22;21.00;99.90
25949;DHT22;13961;51.178;4.448;2023-05-07T11:45:50;21.20;99.90
25949;DHT22;13961;51.178;4.448;2023-05-07T11:48:16;20.90;99.90
25949;DHT22;13961;51.178;4.448;2023-05-07T11:50:51;20.90;99.90
25949;DHT22;13961;51.178;4.448;2023-05-07T11:53:20;21.00;99.90
25949;DHT22;13961;51.178;4.448;2023-05-07T11:55:52;20.90;99.90
25949;DHT22;13961;51.178;4.448;2023-05-07T11:58:23;20.80;99.90
25949;DHT22;13961;51.178;4.448;2023-05-07T12:00:53;20.80;99.90
25949;DHT22;13961;51.178;4.448;2023-05-07T12:03:19;21.10;99.90
25949;DHT22;13961;51.178;4.448;2023-05-07T12:05:46;21.00;99.90
25949;DHT22;13961;51.178;4.448;2023-05-07T12:08:17;20.80;99.90
25949;DHT22;13961;51.178;4.448;2023-05-07T12:10:43;21.00;99.90
25949;DHT22;13961;51.178;4.448;2023-05-07T12:13:21;20.90;99.90
25949;DHT22;13961;51.178;4.448;2023-05-07T12:15:54;21.40;99.90
25949;DHT22;13961;51.178;4.448;2023-05-07T12:18:20;21.50;99.90
25949;DHT22;13961;51.178;4.448;2023-05-07T12:20:47;21.60;99.90
25949;DHT22;13961;51.178;4.448;2023-05-07T12:23:13;21.70;99.90
25949;DHT22;13961;51.178;4.448;2023-05-07T12:25:40;21.80;99.90
25949;DHT22;13961;51.178;4.448;2023-05-07T12:28:13;21.80;99.90
25949;DHT22;13961;51.178;4.448;2023-05-07T12:30:39;21.80;99.90
25949;DHT22;13961;51.178;4.448;2023-05-07T12:33:06;20.80;99.90
25949;DHT22;13961;51.178;4.448;2023-05-07T12:35:37;21.20;99.90
25949;DHT22;13961;51.178;4.448;2023-05-07T12:38:07;21.00;99.90
25949;DHT22;13961;51.178;4.448;2023-05-07T12:40:44;21.30;99.90
25949;DHT22;13961;51.178;4.448;2023-05-07T12:43:27;21.60;99.90
25949;DHT22;13961;51.178;4.448;2023-05-07T12:45:58;21.80;99.90
25949;DHT22;13961;51.178;4.448;2023-05-07T12:48:25;21.90;99.90
25949;DHT22;13961;51.178;4.448;2023-05-07T12:50:56;22.20;99.90
25949;DHT22;13961;51.178;4.448;2023-05-07T12:53:23;21.70;99.90
25949;DHT22;13961;51.178;4.448;2023-05-07T12:55:55;21.80;99.90
25949;DHT22;13961;51.178;4.448;2023-05-07T12:58:23;21.60;99.90
25949;DHT22;13961;51.178;4.448;2023-05-07T13:00:50;21.90;99.90
25949;DHT22;13961;51.178;4.448;2023-05-07T13:03:31;21.80;99.90
25949;DHT22;13961;51.178;4.448;2023-05-07T13:06:08;21.50;99.90
25949;DHT22;13961;51.178;4.448;2023-05-07T13:08:40;21.80;99.90
25949;DHT22;13961;51.178;4.448;2023-05-07T13:11:09;22.00;99.90
25949;DHT22;13961;51.178;4.448;2023-05-07T13:13:38;22.40;99.90
25949;DHT22;13961;51.178;4.448;2023-05-07T13:16:05;22.50;99.90
25949;DHT22;13961;51.178;4.448;2023-05-07T13:18:32;22.60;99.90
25949;DHT22;13961;51.178;4.448;2023-05-07T13:20:59;22.70;99.90
25949;DHT22;13961;51.178;4.448;2023-05-07T13:23:26;23.00;99.90
25949;DHT22;13961;51.178;4.448;2023-05-07T13:25:51;23.00;99.90
25949;DHT22;13961;51.178;4.448;2023-05-07T13:28:21;22.70;99.90
25949;DHT22;13961;51.178;4.448;2023-05-07T13:30:47;22.60;99.90
25949;DHT22;13961;51.178;4.448;2023-05-07T13:33:13;22.60;99.90
25949;DHT22;13961;51.178;4.448;2023-05-07T13:35:39;22.50;99.90
25949;DHT22;13961;51.178;4.448;2023-05-07T13:38:04;22.40;99.90
25949;DHT22;13961;51.178;4.448;2023-05-07T13:40:30;22.60;99.90
25949;DHT22;13961;51.178;4.448;2023-05-07T13:43:00;22.70;99.90
25949;DHT22;13961;51.178;4.448;2023-05-07T13:45:30;23.00;99.90
25949;DHT22;13961;51.178;4.448;2023-05-07T13:47:56;22.80;99.90
25949;DHT22;13961;51.178;4.448;2023-05-07T13:50:22;22.50;99.90
25949;DHT22;13961;51.178;4.448;2023-05-07T13:52:48;22.70;99.90
25949;DHT22;13961;51.178;4.448;2023-05-07T13:55:17;22.30;99.90
25949;DHT22;13961;51.178;4.448;2023-05-07T13:57:44;21.50;99.90
25949;DHT22;13961;51.178;4.448;2023-05-07T14:00:10;21.70;99.90
25949;DHT22;13961;51.178;4.448;2023-05-07T14:02:36;22.00;99.90
25949;DHT22;13961;51.178;4.448;2023-05-07T14:05:02;22.30;99.90
25949;DHT22;13961;51.178;4.448;2023-05-07T14:07:28;22.60;99.90
25949;DHT22;13961;51.178;4.448;2023-05-07T14:09:54;22.80;99.90
25949;DHT22;13961;51.178;4.448;2023-05-07T14:12:20;23.00;99.90
25949;DHT22;13961;51.178;4.448;2023-05-07T14:14:46;23.40;99.90
25949;DHT22;13961;51.178;4.448;2023-05-07T14:17:12;23.50;99.90
25949;DHT22;13961;51.178;4.448;2023-05-07T14:19:38;23.20;99.90
25949;DHT22;13961;51.178;4.448;2023-05-07T14:22:04;23.00;99.90
25949;DHT22;13961;51.178;4.448;2023-05-07T14:24:29;23.10;99.90
25949;DHT22;13961;51.178;4.448;2023-05-07T14:26:55;23.30;99.90
25949;DHT22;13961;51.178;4.448;2023-05-07T14:29:21;23.10;99.90
25949;DHT22;13961;51.178;4.448;2023-05-07T14:31:48;23.20;99.90
25949;DHT22;13961;51.178;4.448;2023-05-07T14:34:13;23.30;99.90
25949;DHT22;13961;51.178;4.448;2023-05-07T14:36:39;22.90;99.90
25949;DHT22;13961;51.178;4.448;2023-05-07T14:39:05;22.70;99.90
25949;DHT22;13961;51.178;4.448;2023-05-07T14:41:31;22.20;99.90
25949;DHT22;13961;51.178;4.448;2023-05-07T14:43:58;22.00;99.90
25949;DHT22;13961;51.178;4.448;2023-05-07T14:46:24;22.20;99.90
25949;DHT22;13961;51.178;4.448;2023-05-07T14:48:51;22.60;99.90
25949;DHT22;13961;51.178;4.448;2023-05-07T14:51:17;22.40;99.90
25949;DHT22;13961;51.178;4.448;2023-05-07T14:53:42;21.90;99.90
25949;DHT22;13961;51.178;4.448;2023-05-07T14:56:08;22.20;99.90
25949;DHT22;13961;51.178;4.448;2023-05-07T14:58:34;22.60;99.90
25949;DHT22;13961;51.178;4.448;2023-05-07T15:01:00;22.50;99.90
25949;DHT22;13961;51.178;4.448;2023-05-07T15:03:27;21.90;99.90
25949;DHT22;13961;51.178;4.448;2023-05-07T15:05:53;21.90;99.90
25949;DHT22;13961;51.178;4.448;2023-05-07T15:08:19;21.90;99.90
25949;DHT22;13961;51.178;4.448;2023-05-07T15:10:45;22.20;99.90
25949;DHT22;13961;51.178;4.448;2023-05-07T15:13:11;22.40;99.90
25949;DHT22;13961;51.178;4.448;2023-05-07T15:15:38;22.40;99.90
25949;DHT22;13961;51.178;4.448;2023-05-07T15:18:04;22.20;99.90
25949;DHT22;13961;51.178;4.448;2023-05-07T15:20:30;22.40;99.90
25949;DHT22;13961;51.178;4.448;2023-05-07T15:22:56;22.40;99.90
25949;DHT22;13961;51.178;4.448;2023-05-07T15:25:22;22.50;99.90
25949;DHT22;13961;51.178;4.448;2023-05-07T15:27:48;22.10;99.90
25949;DHT22;13961;51.178;4.448;2023-05-07T15:30:14;21.90;99.90
25949;DHT22;13961;51.178;4.448;2023-05-07T15:32:43;22.20;99.90
25949;DHT22;13961;51.178;4.448;2023-05-07T15:35:09;22.20;99.90
25949;DHT22;13961;51.178;4.448;2023-05-07T15:37:35;22.10;99.90
25949;DHT22;13961;51.178;4.448;2023-05-07T15:40:07;22.20;99.90
25949;DHT22;13961;51.178;4.448;2023-05-07T15:42:33;21.90;99.90
25949;DHT22;13961;51.178;4.448;2023-05-07T15:44:59;21.60;99.90
25949;DHT22;13961;51.178;4.448;2023-05-07T15:47:26;21.80;99.90
25949;DHT22;13961;51.178;4.448;2023-05-07T15:49:53;22.00;99.90
25949;DHT22;13961;51.178;4.448;2023-05-07T15:52:19;22.40;99.90